Time;durP1;ratioP1;P1;durP2;ratioP2;P2;SDS_P1;SDS_P2;PMS_P1;PMS_P2;Temp;Humidity;BMP_temperature;BMP_pressure;BME280_temperature;BME280_humidity;BME280_pressure;Samples;Min_cycle;Max_cycle;Signal;HPM_P1;HPM_P2
2022/06/28 00:00:04;;;;;;;;;;;22.90;99.90;;;;;;5074604;28;19956;-68
2022/06/28 00:02:29;;;;;;;;;;;22.80;99.90;;;;;;5074917;28;19920;-68
2022/06/28 00:04:55;;;;;;;;;;;22.80;99.90;;;;;;5074675;28;20025;-68
2022/06/28 00:07:20;;;;;;;;;;;22.80;99.90;;;;;;5075199;28;19916;-67
2022/06/28 00:09:46;;;;;;;;;;;22.80;99.90;;;;;;5074628;28;19913;-67
2022/06/28 00:12:11;;;;;;;;;;;22.80;99.90;;;;;;5075072;28;20313;-68
2022/06/28 00:17:21;;;;;;;;;;;22.90;99.90;;;;;;5075500;28;19924;-67
2022/06/28 00:19:46;;;;;;;;;;;22.80;99.90;;;;;;5074517;28;19913;-67
2022/06/28 00:22:12;;;;;;;;;;;22.90;99.90;;;;;;5075055;28;19920;-67
2022/06/28 00:24:37;;;;;;;;;;;22.90;99.90;;;;;;5074415;28;19978;-67
2022/06/28 00:27:03;;;;;;;;;;;22.90;99.90;;;;;;5056508;28;20016;-67
2022/06/28 00:29:28;;;;;;;;;;;22.90;99.90;;;;;;5074271;28;19917;-67
2022/06/28 00:31:54;;;;;;;;;;;22.80;99.90;;;;;;5074657;28;20007;-67
2022/06/28 00:34:19;;;;;;;;;;;22.80;99.90;;;;;;5074314;28;20141;-67
2022/06/28 00:36:45;;;;;;;;;;;22.90;99.90;;;;;;5074003;28;20007;-67
2022/06/28 00:39:11;;;;;;;;;;;22.80;99.90;;;;;;5074381;28;19912;-67
2022/06/28 00:41:37;;;;;;;;;;;22.80;99.90;;;;;;5074240;28;19916;-67
2022/06/28 00:44:02;;;;;;;;;;;22.80;99.90;;;;;;5074023;28;19940;-67
2022/06/28 00:46:29;;;;;;;;;;;22.70;99.90;;;;;;5074245;28;20367;-68
2022/06/28 00:48:55;;;;;;;;;;;22.70;99.90;;;;;;5055836;28;20368;-68
2022/06/28 00:51:20;;;;;;;;;;;22.70;99.90;;;;;;5074091;28;19970;-68
2022/06/28 00:53:46;;;;;;;;;;;22.70;99.90;;;;;;5073947;28;19920;-67
2022/06/28 00:56:11;;;;;;;;;;;22.70;99.90;;;;;;5056198;28;19998;-67
2022/06/28 00:58:37;;;;;;;;;;;22.60;99.90;;;;;;5073780;28;20396;-67
2022/06/28 01:01:02;;;;;;;;;;;22.60;99.90;;;;;;5073848;28;20011;-67
2022/06/28 01:03:28;;;;;;;;;;;22.60;99.90;;;;;;5073694;28;19984;-67
2022/06/28 01:05:54;;;;;;;;;;;22.60;99.90;;;;;;5073907;28;19999;-67
2022/06/28 01:08:19;;;;;;;;;;;22.60;99.90;;;;;;5074392;28;19939;-68
2022/06/28 01:10:46;;;;;;;;;;;22.60;99.90;;;;;;5073805;28;19916;-68
2022/06/28 01:13:12;;;;;;;;;;;22.60;99.90;;;;;;5073799;28;19913;-67
2022/06/28 01:15:40;;;;;;;;;;;22.50;99.90;;;;;;5073577;28;20268;-68
2022/06/28 01:18:06;;;;;;;;;;;22.50;99.90;;;;;;5073724;28;20491;-67
2022/06/28 01:20:31;;;;;;;;;;;22.50;99.90;;;;;;5073719;28;19916;-67
2022/06/28 01:22:57;;;;;;;;;;;22.20;99.90;;;;;;5073626;28;20291;-68
2022/06/28 01:25:23;;;;;;;;;;;22.50;99.90;;;;;;5073099;28;19912;-67
2022/06/28 01:27:50;;;;;;;;;;;22.40;99.90;;;;;;5073498;28;19916;-67
2022/06/28 01:30:15;;;;;;;;;;;22.50;99.90;;;;;;5072934;28;20326;-67
2022/06/28 01:32:41;;;;;;;;;;;22.50;99.90;;;;;;5073144;28;19912;-68
2022/06/28 01:35:07;;;;;;;;;;;22.50;99.90;;;;;;5055156;28;19969;-68
2022/06/28 01:37:33;;;;;;;;;;;22.50;99.90;;;;;;5072921;28;20380;-67
2022/06/28 01:39:58;;;;;;;;;;;22.40;99.90;;;;;;5073049;28;19971;-67
2022/06/28 01:42:25;;;;;;;;;;;22.50;99.90;;;;;;5073237;28;19916;-67
2022/06/28 01:44:51;;;;;;;;;;;22.40;99.90;;;;;;5054890;28;19920;-68
2022/06/28 01:47:18;;;;;;;;;;;22.40;99.90;;;;;;5073210;28;20262;-67
2022/06/28 01:49:43;;;;;;;;;;;22.40;99.90;;;;;;5072902;28;19923;-67
2022/06/28 01:52:09;;;;;;;;;;;22.40;99.90;;;;;;5055063;28;20007;-68
2022/06/28 01:54:34;;;;;;;;;;;22.40;99.90;;;;;;5073219;28;19919;-67
2022/06/28 01:57:01;;;;;;;;;;;22.40;99.90;;;;;;5072604;28;20372;-67
2022/06/28 01:59:26;;;;;;;;;;;22.40;99.90;;;;;;5072925;28;20011;-67
2022/06/28 02:01:52;;;;;;;;;;;22.40;99.90;;;;;;5072877;28;20037;-67
2022/06/28 02:04:22;;;;;;;;;;;22.30;99.90;;;;;;5072870;28;20333;-67
2022/06/28 02:06:48;;;;;;;;;;;22.30;99.90;;;;;;5072928;28;19970;-68
2022/06/28 02:09:13;;;;;;;;;;;22.30;99.90;;;;;;5072545;28;20395;-68
2022/06/28 02:11:39;;;;;;;;;;;22.30;99.90;;;;;;5072698;28;19912;-68
2022/06/28 02:14:04;;;;;;;;;;;22.30;99.90;;;;;;5072406;28;20019;-67
2022/06/28 02:16:30;;;;;;;;;;;22.40;99.90;;;;;;5071965;28;19962;-67
2022/06/28 02:18:55;;;;;;;;;;;22.40;99.90;;;;;;5054489;28;19923;-67
2022/06/28 02:21:21;;;;;;;;;;;22.40;99.90;;;;;;5072244;28;20391;-67
2022/06/28 02:23:46;;;;;;;;;;;22.40;99.90;;;;;;5072218;28;20376;-67
2022/06/28 02:26:13;;;;;;;;;;;22.40;99.90;;;;;;5072335;28;19951;-68
2022/06/28 02:28:39;;;;;;;;;;;22.30;99.90;;;;;;5071966;28;19924;-67
2022/06/28 02:31:12;;;;;;;;;;;22.40;99.90;;;;;;5072107;28;19919;-67
2022/06/28 02:33:38;;;;;;;;;;;22.40;99.90;;;;;;5053992;28;19924;-67
2022/06/28 02:41:32;;;;;;;;;;;22.40;99.90;;;;;;5071805;28;20403;-67
2022/06/28 02:43:58;;;;;;;;;;;22.40;99.90;;;;;;5071846;28;19952;-67
2022/06/28 02:46:24;;;;;;;;;;;22.30;99.90;;;;;;5071945;28;20032;-68
2022/06/28 02:48:49;;;;;;;;;;;22.40;99.90;;;;;;5071839;28;20346;-67
2022/06/28 02:51:15;;;;;;;;;;;22.40;99.90;;;;;;5071891;28;19917;-67
2022/06/28 02:53:40;;;;;;;;;;;22.40;99.90;;;;;;5071690;28;20364;-68
2022/06/28 02:56:06;;;;;;;;;;;22.40;99.90;;;;;;5071756;28;19995;-67
2022/06/28 02:58:31;;;;;;;;;;;22.40;99.90;;;;;;5071484;28;19917;-68
2022/06/28 03:00:57;;;;;;;;;;;22.40;99.90;;;;;;5071615;28;20424;-67
2022/06/28 03:03:22;;;;;;;;;;;22.40;99.90;;;;;;5071359;28;19922;-68
2022/06/28 03:05:48;;;;;;;;;;;22.40;99.90;;;;;;5071778;28;20050;-67
2022/06/28 03:08:14;;;;;;;;;;;22.40;99.90;;;;;;5071649;28;19924;-67
2022/06/28 03:10:39;;;;;;;;;;;22.50;99.90;;;;;;5071591;28;19952;-67
2022/06/28 03:13:05;;;;;;;;;;;22.50;99.90;;;;;;5071167;28;19913;-67
2022/06/28 03:15:31;;;;;;;;;;;22.50;99.90;;;;;;5071434;28;19916;-67
2022/06/28 03:17:56;;;;;;;;;;;22.50;99.90;;;;;;5071319;28;20261;-67
2022/06/28 03:20:22;;;;;;;;;;;22.50;99.90;;;;;;5071432;28;19916;-67
2022/06/28 03:22:47;;;;;;;;;;;22.50;99.90;;;;;;5071251;28;19916;-68
2022/06/28 03:25:13;;;;;;;;;;;22.50;99.90;;;;;;5071164;28;19928;-67
2022/06/28 03:27:38;;;;;;;;;;;22.50;99.90;;;;;;5071285;28;19973;-67
2022/06/28 03:30:04;;;;;;;;;;;22.50;99.90;;;;;;5053229;28;19920;-68
2022/06/28 03:32:30;;;;;;;;;;;22.60;99.90;;;;;;5071277;28;20360;-67
2022/06/28 03:34:56;;;;;;;;;;;22.60;99.90;;;;;;5071207;28;19909;-67
2022/06/28 03:37:21;;;;;;;;;;;22.60;99.90;;;;;;5070827;28;19966;-68
2022/06/28 03:39:47;;;;;;;;;;;22.70;99.90;;;;;;5071146;28;19970;-66
2022/06/28 03:42:12;;;;;;;;;;;22.60;99.90;;;;;;5071455;28;19917;-67
2022/06/28 03:44:38;;;;;;;;;;;22.60;99.90;;;;;;5071038;28;20003;-67
2022/06/28 03:47:03;;;;;;;;;;;22.70;99.90;;;;;;5071417;28;19912;-67
2022/06/28 03:49:29;;;;;;;;;;;22.70;99.90;;;;;;5070974;28;19912;-67
2022/06/28 03:51:55;;;;;;;;;;;22.80;99.90;;;;;;5071043;28;19969;-67
2022/06/28 03:54:20;;;;;;;;;;;22.80;99.90;;;;;;5070920;28;20379;-68
2022/06/28 03:56:46;;;;;;;;;;;22.90;99.90;;;;;;5071452;28;19912;-68
2022/06/28 03:59:11;;;;;;;;;;;22.90;99.90;;;;;;5071015;28;19912;-68
2022/06/28 04:01:37;;;;;;;;;;;22.90;99.90;;;;;;5071372;28;19922;-67
2022/06/28 04:04:02;;;;;;;;;;;23.00;99.90;;;;;;5070926;28;19912;-67
2022/06/28 04:06:28;;;;;;;;;;;23.00;99.90;;;;;;5070796;28;20379;-68
2022/06/28 04:08:53;;;;;;;;;;;23.10;99.90;;;;;;5053053;28;20268;-67
2022/06/28 04:11:19;;;;;;;;;;;23.10;99.90;;;;;;5071262;28;20377;-67
2022/06/28 04:13:46;;;;;;;;;;;23.20;99.90;;;;;;5070974;28;20015;-68
2022/06/28 04:16:11;;;;;;;;;;;23.20;99.90;;;;;;5071227;28;19916;-67
2022/06/28 04:18:37;;;;;;;;;;;23.30;99.90;;;;;;5070725;28;20035;-67
2022/06/28 04:21:02;;;;;;;;;;;23.30;99.90;;;;;;5071087;28;19987;-68
2022/06/28 04:23:28;;;;;;;;;;;23.40;99.90;;;;;;5070793;28;19913;-68
2022/06/28 04:25:53;;;;;;;;;;;23.40;99.90;;;;;;5070994;28;20003;-67
2022/06/28 04:28:19;;;;;;;;;;;23.50;99.90;;;;;;5070738;28;19916;-68
2022/06/28 04:30:44;;;;;;;;;;;23.50;99.90;;;;;;5070914;28;19919;-67
2022/06/28 04:33:10;;;;;;;;;;;23.60;99.90;;;;;;5070636;28;19939;-67
2022/06/28 04:35:35;;;;;;;;;;;23.60;99.90;;;;;;5070636;28;19969;-68
2022/06/28 04:38:01;;;;;;;;;;;23.70;99.90;;;;;;5070458;28;19925;-68
2022/06/28 04:40:27;;;;;;;;;;;23.80;99.90;;;;;;5074297;28;20057;-67
2022/06/28 04:42:52;;;;;;;;;;;23.90;99.90;;;;;;5074309;28;20389;-67
2022/06/28 04:45:18;;;;;;;;;;;23.90;99.90;;;;;;5074133;28;20346;-67
2022/06/28 04:47:43;;;;;;;;;;;24.00;99.90;;;;;;5074843;28;19985;-67
2022/06/28 04:50:09;;;;;;;;;;;24.10;99.90;;;;;;5074235;28;19916;-67
2022/06/28 04:52:36;;;;;;;;;;;24.10;99.90;;;;;;5056159;28;19916;-66
2022/06/28 04:55:02;;;;;;;;;;;24.20;99.90;;;;;;5074039;28;20318;-67
2022/06/28 04:57:27;;;;;;;;;;;24.20;99.90;;;;;;5074033;28;19916;-67
2022/06/28 04:59:53;;;;;;;;;;;24.30;99.90;;;;;;5073807;28;19909;-67
2022/06/28 05:02:19;;;;;;;;;;;24.30;99.90;;;;;;5074370;28;19916;-68
2022/06/28 05:04:44;;;;;;;;;;;24.40;99.90;;;;;;5073850;28;19916;-67
2022/06/28 05:07:09;;;;;;;;;;;24.50;99.90;;;;;;5074301;28;19915;-67
2022/06/28 05:09:35;;;;;;;;;;;24.60;99.90;;;;;;5073712;28;19952;-67
2022/06/28 05:12:00;;;;;;;;;;;24.60;99.90;;;;;;5074283;28;19973;-66
2022/06/28 05:14:26;;;;;;;;;;;24.60;99.90;;;;;;5073724;28;19923;-68
2022/06/28 05:16:52;;;;;;;;;;;24.70;99.90;;;;;;5073547;28;19908;-69
2022/06/28 05:19:17;;;;;;;;;;;24.70;99.90;;;;;;5073463;28;19964;-67
2022/06/28 05:21:43;;;;;;;;;;;24.80;99.90;;;;;;5073532;28;19966;-67
2022/06/28 05:24:08;;;;;;;;;;;24.80;99.90;;;;;;5073535;28;20373;-67
2022/06/28 05:26:34;;;;;;;;;;;24.80;99.90;;;;;;5055519;28;19916;-67
2022/06/28 05:29:00;;;;;;;;;;;24.90;99.90;;;;;;5073260;28;20295;-67
2022/06/28 05:31:25;;;;;;;;;;;24.90;99.90;;;;;;5073596;28;20363;-67
2022/06/28 05:33:51;;;;;;;;;;;24.90;99.90;;;;;;5073054;28;19929;-66
2022/06/28 05:36:16;;;;;;;;;;;25.00;99.90;;;;;;5073451;28;19917;-67
2022/06/28 05:38:42;;;;;;;;;;;25.00;99.90;;;;;;5055461;28;20003;-67
2022/06/28 05:41:09;;;;;;;;;;;25.10;99.90;;;;;;5072604;28;19917;-67
2022/06/28 05:43:35;;;;;;;;;;;25.10;99.90;;;;;;5055250;28;20054;-67
2022/06/28 05:46:01;;;;;;;;;;;25.30;99.90;;;;;;5073146;28;20411;-67
2022/06/28 05:48:26;;;;;;;;;;;25.30;99.90;;;;;;5072988;28;20011;-67
2022/06/28 05:50:52;;;;;;;;;;;25.40;99.90;;;;;;5071839;28;20367;-67
2022/06/28 05:53:17;;;;;;;;;;;25.40;99.90;;;;;;5072785;28;20026;-67
2022/06/28 05:55:43;;;;;;;;;;;25.50;99.90;;;;;;5072894;28;19913;-67
2022/06/28 05:58:08;;;;;;;;;;;25.50;99.90;;;;;;5072927;28;19912;-67
2022/06/28 06:00:37;;;;;;;;;;;25.60;99.90;;;;;;5072611;28;20437;-67
2022/06/28 06:03:03;;;;;;;;;;;25.70;99.90;;;;;;5072574;28;20378;-68
2022/06/28 06:05:28;;;;;;;;;;;25.80;99.90;;;;;;5072458;28;19912;-68
2022/06/28 06:07:54;;;;;;;;;;;25.90;99.90;;;;;;5072631;28;19964;-67
2022/06/28 06:10:20;;;;;;;;;;;25.90;99.90;;;;;;5072701;28;19970;-67
2022/06/28 06:12:45;;;;;;;;;;;26.00;99.90;;;;;;5072689;28;19912;-67
2022/06/28 06:15:11;;;;;;;;;;;26.00;99.90;;;;;;5072162;28;19920;-67
2022/06/28 06:17:36;;;;;;;;;;;26.10;99.90;;;;;;5054376;28;20015;-67
2022/06/28 06:20:02;;;;;;;;;;;26.20;99.90;;;;;;5072153;28;19947;-68
2022/06/28 06:22:28;;;;;;;;;;;26.30;99.90;;;;;;5072112;28;19923;-68
2022/06/28 06:24:54;;;;;;;;;;;26.40;99.90;;;;;;5072091;28;19916;-67
2022/06/28 06:27:19;;;;;;;;;;;26.40;99.90;;;;;;5072603;28;20144;-67
2022/06/28 06:29:45;;;;;;;;;;;26.50;99.90;;;;;;5071768;28;20358;-69
2022/06/28 06:32:10;;;;;;;;;;;26.60;99.90;;;;;;5054334;28;19917;-68
2022/06/28 06:34:36;;;;;;;;;;;26.70;99.90;;;;;;5071936;28;20261;-68
2022/06/28 06:37:01;;;;;;;;;;;26.80;99.90;;;;;;5071766;28;20046;-67
2022/06/28 06:39:27;;;;;;;;;;;26.90;99.90;;;;;;5072125;28;19919;-65
2022/06/28 06:41:52;;;;;;;;;;;27.00;99.90;;;;;;5072102;28;19920;-67
2022/06/28 06:44:18;;;;;;;;;;;27.20;99.90;;;;;;5053753;28;19958;-67
2022/06/28 06:46:44;;;;;;;;;;;27.30;99.90;;;;;;5072148;28;19949;-67
2022/06/28 06:49:09;;;;;;;;;;;27.40;99.90;;;;;;5071777;28;19962;-68
2022/06/28 06:51:35;;;;;;;;;;;27.50;99.90;;;;;;5072020;28;19975;-68
2022/06/28 06:54:00;;;;;;;;;;;27.60;99.90;;;;;;5071714;28;19913;-68
2022/06/28 06:56:26;;;;;;;;;;;27.60;99.90;;;;;;5071912;28;19965;-68
2022/06/28 06:58:52;;;;;;;;;;;27.70;99.90;;;;;;5071769;28;19919;-68
2022/06/28 07:01:17;;;;;;;;;;;27.80;99.90;;;;;;5071329;28;20015;-68
2022/06/28 07:03:44;;;;;;;;;;;27.90;99.90;;;;;;5071785;28;20316;-68
2022/06/28 07:06:13;;;;;;;;;;;28.00;99.90;;;;;;5071849;28;20297;-66
2022/06/28 07:08:39;;;;;;;;;;;28.20;99.90;;;;;;5072162;28;19912;-65
2022/06/28 07:11:05;;;;;;;;;;;28.30;99.90;;;;;;5071779;28;19919;-66
2022/06/28 07:13:30;;;;;;;;;;;28.40;99.90;;;;;;5071405;28;19917;-66
2022/06/28 07:15:57;;;;;;;;;;;28.30;99.90;;;;;;5071484;28;19923;-66
2022/06/28 07:18:23;;;;;;;;;;;28.20;99.90;;;;;;5071276;28;19934;-66
2022/06/28 07:20:51;;;;;;;;;;;28.30;99.90;;;;;;5071211;28;20305;-66
2022/06/28 07:23:16;;;;;;;;;;;28.50;99.90;;;;;;5071596;28;20261;-66
2022/06/28 07:25:42;;;;;;;;;;;28.60;99.90;;;;;;5071268;28;19913;-67
2022/06/28 07:28:10;;;;;;;;;;;28.80;99.90;;;;;;5071397;28;19916;-67
2022/06/28 07:30:36;;;;;;;;;;;28.90;99.90;;;;;;5071170;28;20280;-67
2022/06/28 07:33:02;;;;;;;;;;;28.80;99.90;;;;;;5070893;28;19967;-67
2022/06/28 07:35:27;;;;;;;;;;;28.80;99.90;;;;;;5071578;28;19962;-67
2022/06/28 07:37:53;;;;;;;;;;;28.90;99.90;;;;;;5071347;28;19925;-67
2022/06/28 07:40:19;;;;;;;;;;;29.00;99.90;;;;;;5070875;28;20019;-67
2022/06/28 07:42:44;;;;;;;;;;;29.10;99.90;;;;;;5070898;28;20264;-67
2022/06/28 07:45:10;;;;;;;;;;;29.00;99.90;;;;;;5070846;28;19977;-67
2022/06/28 07:47:35;;;;;;;;;;;28.80;99.90;;;;;;5071133;28;20257;-67
2022/06/28 07:52:45;;;;;;;;;;;28.50;99.90;;;;;;5071436;28;20022;-67
2022/06/28 07:55:11;;;;;;;;;;;28.60;99.90;;;;;;5070960;28;19912;-67
2022/06/28 07:57:36;;;;;;;;;;;28.90;99.90;;;;;;5071045;28;19920;-67
2022/06/28 08:00:04;;;;;;;;;;;29.00;99.90;;;;;;5070828;28;19936;-67
2022/06/28 08:02:29;;;;;;;;;;;29.10;99.90;;;;;;5070289;28;19928;-67
2022/06/28 08:04:55;;;;;;;;;;;29.10;99.90;;;;;;5070721;28;19908;-67
2022/06/28 08:07:21;;;;;;;;;;;29.10;99.90;;;;;;5071109;28;19912;-67
2022/06/28 08:09:47;;;;;;;;;;;29.40;99.90;;;;;;5070949;28;19912;-67
2022/06/28 08:12:12;;;;;;;;;;;29.50;99.90;;;;;;5071091;28;19912;-67
2022/06/28 08:14:38;;;;;;;;;;;29.60;99.90;;;;;;5073491;28;19962;-71
2022/06/28 08:17:04;;;;;;;;;;;29.50;99.90;;;;;;5075327;28;19913;-68
2022/06/28 08:19:29;;;;;;;;;;;29.50;99.90;;;;;;5074973;28;20335;-67
2022/06/28 08:21:55;;;;;;;;;;;29.40;99.90;;;;;;5075098;28;20400;-67
2022/06/28 08:24:20;;;;;;;;;;;29.50;99.90;;;;;;5056449;28;19963;-67
2022/06/28 08:26:46;;;;;;;;;;;29.70;99.90;;;;;;5074550;28;20339;-68
2022/06/28 08:29:15;;;;;;;;;;;30.00;99.90;;;;;;5074412;28;19973;-67
2022/06/28 08:31:41;;;;;;;;;;;30.30;99.90;;;;;;5074250;28;19912;-67
2022/06/28 08:34:06;;;;;;;;;;;30.70;99.70;;;;;;5056365;28;20204;-67
2022/06/28 08:36:32;;;;;;;;;;;31.20;99.60;;;;;;5074129;28;20366;-67
2022/06/28 08:38:58;;;;;;;;;;;31.40;98.90;;;;;;5074423;28;20007;-67
2022/06/28 08:41:26;;;;;;;;;;;31.30;98.20;;;;;;5074483;28;19923;-67
2022/06/28 08:43:52;;;;;;;;;;;31.30;98.00;;;;;;5074094;28;19921;-67
2022/06/28 08:46:18;;;;;;;;;;;31.20;97.90;;;;;;5074407;28;19913;-67
2022/06/28 08:48:47;;;;;;;;;;;31.40;98.00;;;;;;5074004;28;19913;-67
2022/06/28 08:51:12;;;;;;;;;;;31.80;97.30;;;;;;5056281;28;19913;-67
2022/06/28 08:53:39;;;;;;;;;;;32.00;97.00;;;;;;5074132;28;19922;-67
2022/06/28 08:56:05;;;;;;;;;;;32.10;96.30;;;;;;5073976;28;20017;-67
2022/06/28 08:58:31;;;;;;;;;;;32.00;96.40;;;;;;5073651;28;19917;-67
2022/06/28 09:00:57;;;;;;;;;;;32.10;96.40;;;;;;5073989;28;20019;-67
2022/06/28 09:03:23;;;;;;;;;;;32.40;96.20;;;;;;5073352;28;19924;-66
2022/06/28 09:05:49;;;;;;;;;;;32.30;96.20;;;;;;5073763;28;19913;-66
2022/06/28 09:08:14;;;;;;;;;;;31.90;95.90;;;;;;5073535;28;19913;-66
2022/06/28 09:10:40;;;;;;;;;;;31.50;96.40;;;;;;5073578;28;19951;-66
2022/06/28 09:13:06;;;;;;;;;;;31.40;96.40;;;;;;5055523;28;20366;-66
2022/06/28 09:15:44;;;;;;;;;;;31.40;96.40;;;;;;5073735;28;19920;-66
2022/06/28 09:18:09;;;;;;;;;;;31.80;96.10;;;;;;5073796;28;19912;-66
2022/06/28 09:20:37;;;;;;;;;;;31.90;95.30;;;;;;5073595;28;20325;-66
2022/06/28 09:23:02;;;;;;;;;;;31.90;95.30;;;;;;5073253;28;19916;-66
2022/06/28 09:25:30;;;;;;;;;;;31.90;95.10;;;;;;5072908;28;19912;-66
2022/06/28 09:27:56;;;;;;;;;;;32.10;95.30;;;;;;5073057;28;19916;-66
2022/06/28 09:30:22;;;;;;;;;;;32.20;94.90;;;;;;5073283;28;19920;-66
2022/06/28 09:32:48;;;;;;;;;;;32.50;94.50;;;;;;5073493;28;19920;-66
2022/06/28 09:35:13;;;;;;;;;;;32.60;94.60;;;;;;5073302;28;19913;-66
2022/06/28 09:37:50;;;;;;;;;;;32.80;94.30;;;;;;5073112;28;20011;-66
2022/06/28 09:40:16;;;;;;;;;;;33.20;94.10;;;;;;5073335;28;19908;-66
2022/06/28 09:42:42;;;;;;;;;;;33.30;93.00;;;;;;5073131;28;19928;-65
2022/06/28 09:45:08;;;;;;;;;;;33.00;92.80;;;;;;5072932;28;19958;-66
2022/06/28 09:47:34;;;;;;;;;;;32.70;93.10;;;;;;5072847;28;19920;-65
2022/06/28 09:50:04;;;;;;;;;;;32.90;92.90;;;;;;5072959;28;19912;-66
2022/06/28 09:52:30;;;;;;;;;;;33.20;92.40;;;;;;5072927;28;19924;-66
2022/06/28 09:54:56;;;;;;;;;;;33.40;91.90;;;;;;5072462;28;20003;-65
2022/06/28 09:57:23;;;;;;;;;;;33.60;91.70;;;;;;5073071;28;19924;-65
2022/06/28 09:59:49;;;;;;;;;;;33.70;91.30;;;;;;5072656;28;19912;-66
2022/06/28 10:02:15;;;;;;;;;;;33.80;91.30;;;;;;5072828;28;19958;-66
2022/06/28 10:04:41;;;;;;;;;;;34.00;90.60;;;;;;5072164;28;19912;-66
2022/06/28 10:07:10;;;;;;;;;;;34.00;90.50;;;;;;5072437;28;19919;-66
2022/06/28 10:09:35;;;;;;;;;;;34.00;90.30;;;;;;5072346;28;19917;-66
2022/06/28 10:15:02;;;;;;;;;;;34.50;89.60;;;;;;5072506;28;20004;-66
2022/06/28 10:17:40;;;;;;;;;;;34.80;88.30;;;;;;5072216;28;19916;-66
2022/06/28 10:20:07;;;;;;;;;;;35.10;87.10;;;;;;5071916;28;19912;-65
2022/06/28 10:22:32;;;;;;;;;;;35.30;86.50;;;;;;5072206;28;19923;-65
2022/06/28 10:24:59;;;;;;;;;;;35.30;85.80;;;;;;5072439;28;19909;-66
2022/06/28 10:27:24;;;;;;;;;;;35.30;85.40;;;;;;5072896;28;19944;-65
2022/06/28 10:30:08;;;;;;;;;;;35.50;84.60;;;;;;5072038;28;20053;-66
2022/06/28 10:32:47;;;;;;;;;;;35.70;84.10;;;;;;5072573;28;20003;-66
2022/06/28 10:35:30;;;;;;;;;;;35.60;83.50;;;;;;5072163;28;20456;-65
2022/06/28 10:38:08;;;;;;;;;;;35.70;82.90;;;;;;5071386;28;19925;-65
2022/06/28 10:40:45;;;;;;;;;;;35.70;82.70;;;;;;5071910;28;20245;-66
2022/06/28 10:43:11;;;;;;;;;;;35.70;82.90;;;;;;5072035;28;20315;-65
2022/06/28 10:45:55;;;;;;;;;;;35.80;82.00;;;;;;5072083;28;20307;-66
2022/06/28 10:48:20;;;;;;;;;;;36.00;81.40;;;;;;5071740;28;19912;-67
2022/06/28 10:50:59;;;;;;;;;;;36.00;81.20;;;;;;5053343;28;20335;-66
2022/06/28 10:53:28;;;;;;;;;;;36.10;80.70;;;;;;5071628;28;19913;-65
2022/06/28 10:56:14;;;;;;;;;;;35.70;80.80;;;;;;5071966;28;19919;-65
2022/06/28 10:58:58;;;;;;;;;;;35.30;81.40;;;;;;5071481;28;19916;-65
2022/06/28 11:01:38;;;;;;;;;;;35.20;81.50;;;;;;5072014;28;19916;-65
2022/06/28 11:04:11;;;;;;;;;;;35.30;81.90;;;;;;5071534;28;20027;-65
2022/06/28 11:06:47;;;;;;;;;;;35.50;81.40;;;;;;5071644;28;20376;-65
2022/06/28 11:09:22;;;;;;;;;;;35.60;80.60;;;;;;5071220;28;19942;-65
2022/06/28 11:12:03;;;;;;;;;;;35.70;80.10;;;;;;5053712;28;19912;-65
2022/06/28 11:14:32;;;;;;;;;;;36.00;79.20;;;;;;5071330;28;19924;-65
2022/06/28 11:16:59;;;;;;;;;;;36.20;78.70;;;;;;5071615;28;19920;-65
2022/06/28 11:19:25;;;;;;;;;;;36.30;78.90;;;;;;5071139;28;19919;-66
2022/06/28 11:21:55;;;;;;;;;;;36.40;77.90;;;;;;5053294;28;19999;-66
2022/06/28 11:24:23;;;;;;;;;;;36.50;77.70;;;;;;5071420;28;20011;-65
2022/06/28 11:29:33;;;;;;;;;;;36.40;77.50;;;;;;5071583;28;19990;-65
2022/06/28 11:31:59;;;;;;;;;;;36.30;77.60;;;;;;5071816;28;20371;-66
2022/06/28 11:34:27;;;;;;;;;;;36.30;76.60;;;;;;5071126;28;19935;-67
2022/06/28 11:36:54;;;;;;;;;;;36.10;77.50;;;;;;5071175;28;19987;-66
2022/06/28 11:39:21;;;;;;;;;;;36.00;77.50;;;;;;5070950;28;19912;-66
2022/06/28 11:41:48;;;;;;;;;;;36.00;77.30;;;;;;5071431;28;20370;-66
2022/06/28 11:44:14;;;;;;;;;;;35.90;77.10;;;;;;5071024;28;20357;-66
2022/06/28 11:46:40;;;;;;;;;;;36.20;77.00;;;;;;5071223;28;19913;-64
2022/06/28 11:49:05;;;;;;;;;;;36.30;76.80;;;;;;5054672;28;19920;-64
2022/06/28 11:51:31;;;;;;;;;;;36.60;76.50;;;;;;5057032;28;20359;-64
2022/06/28 11:53:57;;;;;;;;;;;36.60;75.90;;;;;;5075059;28;19995;-64
2022/06/28 11:56:23;;;;;;;;;;;36.50;75.90;;;;;;5075392;28;19962;-64
2022/06/28 11:58:48;;;;;;;;;;;36.40;75.80;;;;;;5075165;28;19917;-64
2022/06/28 12:01:18;;;;;;;;;;;36.10;76.10;;;;;;5056364;28;19961;-64
2022/06/28 12:03:44;;;;;;;;;;;35.50;76.50;;;;;;5074676;28;19913;-64
2022/06/28 12:06:10;;;;;;;;;;;35.00;77.60;;;;;;5075163;28;19919;-64
2022/06/28 12:08:42;;;;;;;;;;;35.00;77.80;;;;;;5074577;28;19913;-64
2022/06/28 12:11:08;;;;;;;;;;;35.00;78.40;;;;;;5056781;28;19912;-64
2022/06/28 12:13:33;;;;;;;;;;;35.30;78.10;;;;;;5074811;28;20019;-64
2022/06/28 12:15:59;;;;;;;;;;;35.30;77.70;;;;;;5074799;28;19938;-64
2022/06/28 12:18:24;;;;;;;;;;;35.30;77.20;;;;;;5074503;28;19999;-64
2022/06/28 12:20:58;;;;;;;;;;;35.20;78.50;;;;;;5074383;28;19973;-64
2022/06/28 12:23:24;;;;;;;;;;;35.10;78.00;;;;;;5074657;28;20012;-64
2022/06/28 12:26:01;;;;;;;;;;;35.10;77.20;;;;;;5074333;28;19930;-64
2022/06/28 12:28:27;;;;;;;;;;;35.00;77.40;;;;;;5074443;28;19916;-64
2022/06/28 12:30:53;;;;;;;;;;;35.00;77.50;;;;;;5074122;28;20374;-64
2022/06/28 12:33:19;;;;;;;;;;;34.80;77.70;;;;;;5074620;28;19917;-65
2022/06/28 12:35:44;;;;;;;;;;;34.70;78.10;;;;;;5074294;28;20220;-65
2022/06/28 12:38:10;;;;;;;;;;;34.70;78.10;;;;;;5074337;28;19935;-64
2022/06/28 12:40:35;;;;;;;;;;;34.60;78.40;;;;;;5074248;28;20417;-65
2022/06/28 12:43:01;;;;;;;;;;;34.40;79.40;;;;;;5074298;28;20243;-65
2022/06/28 12:45:26;;;;;;;;;;;34.30;79.10;;;;;;5074325;28;19912;-65
2022/06/28 12:47:52;;;;;;;;;;;34.20;79.20;;;;;;5074028;28;20118;-67
2022/06/28 12:50:17;;;;;;;;;;;34.00;79.40;;;;;;5074230;28;19908;-66
2022/06/28 12:52:43;;;;;;;;;;;33.80;80.50;;;;;;5074018;28;19913;-66
2022/06/28 12:55:10;;;;;;;;;;;33.80;81.00;;;;;;5073374;28;19915;-66
2022/06/28 12:57:35;;;;;;;;;;;33.70;80.70;;;;;;5073566;28;20283;-66
2022/06/28 13:00:01;;;;;;;;;;;33.60;80.80;;;;;;5072633;28;19912;-66
2022/06/28 13:02:28;;;;;;;;;;;33.50;80.60;;;;;;5073379;28;20364;-66
2022/06/28 13:04:53;;;;;;;;;;;33.50;81.20;;;;;;5073324;28;19958;-66
2022/06/28 13:07:20;;;;;;;;;;;33.40;81.20;;;;;;5073875;28;20302;-66
2022/06/28 13:09:47;;;;;;;;;;;33.30;80.70;;;;;;5073657;28;19975;-67
2022/06/28 13:12:14;;;;;;;;;;;33.10;81.00;;;;;;5073656;28;19917;-67
2022/06/28 13:14:39;;;;;;;;;;;33.10;81.10;;;;;;5073785;28;20008;-67
2022/06/28 13:17:05;;;;;;;;;;;33.10;81.50;;;;;;5073797;28;19956;-67
2022/06/28 13:19:30;;;;;;;;;;;33.00;81.30;;;;;;5055544;28;19912;-67
2022/06/28 13:21:56;;;;;;;;;;;33.00;82.30;;;;;;5073698;28;19927;-65
2022/06/28 13:24:21;;;;;;;;;;;32.90;81.30;;;;;;5055336;28;19918;-67
2022/06/28 13:26:47;;;;;;;;;;;33.00;81.40;;;;;;5073530;28;19916;-67
2022/06/28 13:29:12;;;;;;;;;;;32.90;82.00;;;;;;5073153;28;19912;-66
2022/06/28 13:31:38;;;;;;;;;;;32.80;81.70;;;;;;5055169;28;20033;-67
2022/06/28 13:34:04;;;;;;;;;;;32.80;82.00;;;;;;5073188;28;20036;-66
2022/06/28 13:36:30;;;;;;;;;;;32.80;82.30;;;;;;5072960;28;19927;-66
2022/06/28 13:38:55;;;;;;;;;;;32.70;82.40;;;;;;5073170;28;19919;-66
2022/06/28 13:41:21;;;;;;;;;;;32.70;82.60;;;;;;5073055;28;20007;-66
2022/06/28 13:43:46;;;;;;;;;;;32.60;82.70;;;;;;5072654;28;19916;-66
2022/06/28 13:46:14;;;;;;;;;;;32.60;81.90;;;;;;5071687;28;19939;-67
2022/06/28 13:48:40;;;;;;;;;;;32.60;82.20;;;;;;5072021;28;20228;-68
2022/06/28 13:51:06;;;;;;;;;;;32.60;82.20;;;;;;5073091;28;19919;-69
2022/06/28 13:53:32;;;;;;;;;;;32.60;81.60;;;;;;5072850;28;19963;-75
2022/06/28 13:55:59;;;;;;;;;;;32.50;82.00;;;;;;5072995;28;19966;-75
2022/06/28 13:58:25;;;;;;;;;;;32.50;82.30;;;;;;5072869;28;19912;-75
2022/06/28 14:00:50;;;;;;;;;;;32.50;82.00;;;;;;5072722;28;19912;-75
2022/06/28 14:03:16;;;;;;;;;;;32.40;82.30;;;;;;5072553;28;19912;-75
2022/06/28 14:05:44;;;;;;;;;;;32.30;82.40;;;;;;5072383;28;19923;-74
2022/06/28 14:08:09;;;;;;;;;;;32.30;82.90;;;;;;5072760;28;19923;-75
2022/06/28 14:10:36;;;;;;;;;;;32.20;83.30;;;;;;5054507;28;19912;-75
2022/06/28 14:13:02;;;;;;;;;;;32.20;83.20;;;;;;5053893;28;19913;-74
2022/06/28 14:15:28;;;;;;;;;;;32.10;83.10;;;;;;5072398;28;20249;-75
2022/06/28 14:17:53;;;;;;;;;;;32.10;83.20;;;;;;5054424;28;19920;-75
2022/06/28 14:20:19;;;;;;;;;;;32.00;83.70;;;;;;5072722;28;19916;-75
2022/06/28 14:22:44;;;;;;;;;;;31.90;84.20;;;;;;5072158;28;19924;-75
2022/06/28 14:25:11;;;;;;;;;;;31.90;84.20;;;;;;5072189;28;19912;-75
2022/06/28 14:27:37;;;;;;;;;;;31.90;84.00;;;;;;5054068;28;19913;-75